createdAt,value
2023-03-07T00:05:36.006Z,93908.00
2023-03-07T00:06:36.100Z,93908.00
2023-03-07T00:07:36.120Z,93906.00
2023-03-07T00:08:36.168Z,93908.00
2023-03-07T00:09:36.231Z,93908.00
2023-03-07T00:10:36.339Z,93908.00
2023-03-07T00:11:36.395Z,93908.00
2023-03-07T00:12:36.456Z,93910.00
2023-03-07T00:13:36.506Z,93908.00
2023-03-07T00:14:36.592Z,93908.00
2023-03-07T00:15:36.636Z,93910.00
2023-03-07T00:16:36.678Z,93908.00
2023-03-07T00:17:36.754Z,93906.00
2023-03-07T00:18:36.834Z,93908.00
2023-03-07T00:19:36.883Z,93910.00
2023-03-07T00:20:36.973Z,93908.00
2023-03-07T00:21:36.998Z,93908.00
2023-03-07T00:22:37.086Z,93908.00
2023-03-07T00:23:37.147Z,93908.00
2023-03-07T00:24:37.194Z,93908.00
2023-03-07T00:25:37.250Z,93906.00
2023-03-07T00:26:37.333Z,93908.00
2023-03-07T00:27:37.402Z,93908.00
2023-03-07T00:28:37.480Z,93908.00
2023-03-07T00:29:37.495Z,93906.00
2023-03-07T00:30:37.579Z,93904.00
2023-03-07T00:31:37.727Z,93906.00
2023-03-07T00:32:37.704Z,93904.00
2023-03-07T00:33:37.749Z,93904.00
2023-03-07T00:34:37.829Z,93902.00
2023-03-07T00:35:37.917Z,93904.00
2023-03-07T00:36:37.951Z,93906.00
2023-03-07T00:37:38.047Z,93904.00
2023-03-07T00:38:38.103Z,93906.00
2023-03-07T00:39:38.141Z,93902.00
2023-03-07T00:40:38.219Z,93902.00
2023-03-07T00:41:38.257Z,93902.00
2023-03-07T00:42:38.310Z,93901.00
2023-03-07T00:43:38.384Z,93901.00
2023-03-07T00:44:38.443Z,93901.00
2023-03-07T00:45:38.555Z,93901.00
2023-03-07T00:46:38.579Z,93899.00
2023-03-07T00:47:38.635Z,93901.00
2023-03-07T00:48:38.689Z,93899.00
2023-03-07T00:49:38.761Z,93897.00
2023-03-07T00:50:38.812Z,93897.00
2023-03-07T00:51:38.861Z,93893.00
2023-03-07T00:52:38.933Z,93895.00
2023-03-07T00:53:38.977Z,93893.00
2023-03-07T00:54:39.045Z,93891.00
2023-03-07T00:55:39.132Z,93891.00
2023-03-07T00:56:39.153Z,93889.00
2023-03-07T00:57:39.204Z,93889.00
2023-03-07T00:58:39.276Z,93885.00
2023-03-07T00:59:39.326Z,93885.00
2023-03-07T01:00:39.499Z,93881.00
2023-03-07T01:01:39.478Z,93879.00
2023-03-07T01:02:39.532Z,93879.00
2023-03-07T01:03:39.620Z,93879.00
2023-03-07T01:04:39.643Z,93879.00
2023-03-07T01:05:39.717Z,93879.00
2023-03-07T01:06:39.757Z,93879.00
2023-03-07T01:07:39.826Z,93881.00
2023-03-07T01:08:39.913Z,93877.00
2023-03-07T01:09:39.953Z,93877.00
2023-03-07T01:10:40.047Z,93875.00
2023-03-07T01:11:40.076Z,93875.00
2023-03-07T01:12:40.105Z,93875.00
2023-03-07T01:13:40.215Z,93873.00
2023-03-07T01:14:40.259Z,93871.00
2023-03-07T01:15:40.327Z,93871.00
2023-03-07T01:16:40.508Z,93871.00
2023-03-07T01:17:40.433Z,93871.00
2023-03-07T01:18:40.532Z,93875.00
2023-03-07T01:19:40.559Z,93867.00
2023-03-07T01:20:40.646Z,93871.00
2023-03-07T01:21:40.689Z,93871.00
2023-03-07T01:22:40.796Z,93871.00
2023-03-07T01:23:40.824Z,93867.00
2023-03-07T01:24:40.837Z,93865.00
2023-03-07T01:25:40.927Z,93865.00
2023-03-07T01:26:40.993Z,93863.00
2023-03-07T01:27:41.060Z,93856.00
2023-03-07T01:28:41.079Z,93856.00
2023-03-07T01:29:41.147Z,93854.00
2023-03-07T01:30:41.217Z,93854.00
2023-03-07T01:31:41.324Z,93852.00
2023-03-07T01:32:41.328Z,93854.00
2023-03-07T01:33:41.366Z,93854.00
2023-03-07T01:34:41.410Z,93848.00
2023-03-07T01:35:41.493Z,93848.00
2023-03-07T01:36:41.573Z,93842.00
2023-03-07T01:37:41.597Z,93846.00
2023-03-07T01:38:41.657Z,93840.00
2023-03-07T01:39:41.732Z,93842.00
2023-03-07T01:40:41.787Z,93848.00
2023-03-07T01:41:41.855Z,93848.00
2023-03-07T01:42:41.895Z,93842.00
2023-03-07T01:43:41.958Z,93846.00
2023-03-07T01:44:42.051Z,93844.00
2023-03-07T01:45:42.191Z,93838.00
2023-03-07T01:46:42.155Z,93842.00
2023-03-07T01:47:42.227Z,93838.00
2023-03-07T01:48:42.276Z,93838.00
2023-03-07T01:49:42.471Z,93836.00
2023-03-07T01:50:42.425Z,93834.00
2023-03-07T01:51:42.446Z,93834.00
2023-03-07T01:52:42.538Z,93832.00
2023-03-07T01:53:42.612Z,93836.00
2023-03-07T01:54:42.644Z,93838.00
2023-03-07T01:55:42.727Z,93834.00
2023-03-07T01:56:42.753Z,93834.00
2023-03-07T01:57:42.846Z,93836.00
2023-03-07T01:58:42.915Z,93836.00
2023-03-07T01:59:42.945Z,93836.00
2023-03-07T02:00:43.006Z,93840.00
2023-03-07T02:01:43.085Z,93840.00
2023-03-07T02:02:43.145Z,93834.00
2023-03-07T02:03:43.183Z,93834.00
2023-03-07T02:04:43.207Z,93832.00
2023-03-07T02:05:43.276Z,93832.00
2023-03-07T02:06:43.379Z,93832.00
2023-03-07T02:07:43.414Z,93832.00
2023-03-07T02:08:43.455Z,93830.00
2023-03-07T02:09:43.523Z,93830.00
2023-03-07T02:10:43.589Z,93830.00
2023-03-07T02:11:43.630Z,93830.00
2023-03-07T02:12:43.725Z,93830.00
2023-03-07T02:13:43.773Z,93828.00
2023-03-07T02:14:43.807Z,93830.00
2023-03-07T02:15:43.903Z,93826.00
2023-03-07T02:16:43.945Z,93824.00
2023-03-07T02:17:44.003Z,93824.00
2023-03-07T02:18:44.092Z,93824.00
2023-03-07T02:19:44.092Z,93822.00
2023-03-07T02:20:44.158Z,93824.00
2023-03-07T02:21:44.246Z,93828.00
2023-03-07T02:22:44.258Z,93830.00
2023-03-07T02:23:44.345Z,93824.00
2023-03-07T02:24:44.369Z,93822.00
2023-03-07T02:25:44.412Z,93820.00
2023-03-07T02:26:44.537Z,93820.00
2023-03-07T02:27:44.551Z,93822.00
2023-03-07T02:28:44.603Z,93822.00
2023-03-07T02:29:44.618Z,93824.00
2023-03-07T02:30:44.723Z,93828.00
2023-03-07T02:31:44.775Z,93826.00
2023-03-07T02:32:44.890Z,93826.00
2023-03-07T02:33:44.906Z,93828.00
2023-03-07T02:34:44.933Z,93830.00
2023-03-07T02:35:45.013Z,93828.00
2023-03-07T02:36:45.019Z,93828.00
2023-03-07T02:37:45.090Z,93832.00
2023-03-07T02:38:45.155Z,93834.00
2023-03-07T02:39:45.211Z,93834.00
2023-03-07T02:40:45.250Z,93834.00
2023-03-07T02:41:45.317Z,93836.00
2023-03-07T02:42:45.301Z,93838.00
2023-03-07T02:43:45.368Z,93840.00
2023-03-07T02:44:45.428Z,93842.00
2023-03-07T02:45:45.503Z,93840.00
2023-03-07T02:46:45.590Z,93838.00
2023-03-07T02:47:45.603Z,93836.00
2023-03-07T02:48:45.666Z,93834.00
2023-03-07T02:49:45.719Z,93832.00
2023-03-07T02:50:45.746Z,93836.00
2023-03-07T02:51:45.814Z,93838.00
2023-03-07T02:52:45.871Z,93838.00
2023-03-07T02:53:45.893Z,93836.00
2023-03-07T02:54:45.934Z,93842.00
2023-03-07T02:55:45.941Z,93840.00
2023-03-07T02:56:46.022Z,93840.00
2023-03-07T02:57:46.101Z,93840.00
2023-03-07T02:58:46.112Z,93840.00
2023-03-07T02:59:46.181Z,93838.00
2023-03-07T03:00:46.249Z,93842.00
2023-03-07T03:01:46.376Z,93844.00
2023-03-07T03:02:46.304Z,93846.00
2023-03-07T03:03:46.378Z,93844.00
2023-03-07T03:04:46.461Z,93846.00
2023-03-07T03:05:46.502Z,93846.00
2023-03-07T03:06:46.542Z,93846.00
2023-03-07T03:13:46.800Z,93848.00
2023-03-07T03:16:46.972Z,93846.00
2023-03-07T03:17:46.972Z,93844.00
2023-03-07T03:18:47.001Z,93844.00
2023-03-07T03:19:47.034Z,93840.00
2023-03-07T03:20:47.075Z,93838.00
2023-03-07T03:21:47.125Z,93838.00
2023-03-07T03:22:47.136Z,93834.00
2023-03-07T03:23:47.181Z,93834.00
2023-03-07T03:24:47.211Z,93832.00
2023-03-07T03:25:47.254Z,93832.00
2023-03-07T03:26:47.408Z,93832.00
2023-03-07T03:27:47.342Z,93830.00
2023-03-07T03:28:47.400Z,93832.00
2023-03-07T03:29:47.402Z,93832.00
2023-03-07T03:30:47.442Z,93832.00
2023-03-07T03:31:47.473Z,93834.00
2023-03-07T03:32:47.504Z,93836.00
2023-03-07T03:33:47.570Z,93836.00
2023-03-07T03:34:47.612Z,93836.00
2023-03-07T03:35:47.643Z,93836.00
2023-03-07T03:36:47.672Z,93842.00
2023-03-07T03:37:47.704Z,93844.00
2023-03-07T03:38:47.744Z,93846.00
2023-03-07T03:39:47.783Z,93844.00
2023-03-07T03:40:47.819Z,93844.00
2023-03-07T03:41:47.827Z,93842.00
2023-03-07T03:42:47.879Z,93840.00
2023-03-07T03:43:47.873Z,93836.00
2023-03-07T03:44:47.930Z,93832.00
2023-03-07T03:45:47.962Z,93830.00
2023-03-07T03:46:48.006Z,93828.00
2023-03-07T03:47:48.011Z,93828.00
2023-03-07T03:48:48.070Z,93832.00
2023-03-07T03:49:48.089Z,93832.00
2023-03-07T03:50:48.176Z,93832.00
2023-03-07T03:51:48.152Z,93832.00
2023-03-07T03:52:48.187Z,93834.00
2023-03-07T03:53:48.248Z,93832.00
2023-03-07T03:54:48.256Z,93832.00
2023-03-07T03:55:48.277Z,93832.00
2023-03-07T03:56:48.324Z,93834.00
2023-03-07T03:57:48.397Z,93836.00
2023-03-07T03:58:48.432Z,93834.00
2023-03-07T03:59:48.466Z,93834.00
2023-03-07T04:00:48.472Z,93832.00
2023-03-07T04:01:48.574Z,93832.00
2023-03-07T04:02:48.683Z,93832.00
2023-03-07T04:03:48.579Z,93832.00
2023-03-07T04:04:48.579Z,93832.00
2023-03-07T04:05:48.638Z,93834.00
2023-03-07T04:06:48.700Z,93832.00
2023-03-07T04:07:49.780Z,93834.00
2023-03-07T04:08:48.732Z,93832.00
2023-03-07T04:09:48.775Z,93834.00
2023-03-07T04:10:48.818Z,93836.00
2023-03-07T04:11:48.851Z,93834.00
2023-03-07T04:12:48.889Z,93834.00
2023-03-07T04:13:48.893Z,93834.00
2023-03-07T04:14:48.950Z,93834.00
2023-03-07T04:15:48.948Z,93834.00
2023-03-07T04:16:49.093Z,93836.00
2023-03-07T04:17:48.989Z,93838.00
2023-03-07T04:18:49.051Z,93838.00
2023-03-07T04:19:49.050Z,93838.00
2023-03-07T04:20:49.087Z,93838.00
2023-03-07T04:21:49.121Z,93838.00
2023-03-07T04:22:49.166Z,93840.00
2023-03-07T04:23:49.180Z,93840.00
2023-03-07T04:24:49.206Z,93840.00
2023-03-07T04:25:49.275Z,93840.00
2023-03-07T04:26:49.263Z,93840.00
2023-03-07T04:27:49.293Z,93842.00
2023-03-07T04:28:49.533Z,93840.00
2023-03-07T04:29:49.348Z,93840.00
2023-03-07T04:30:49.392Z,93842.00
2023-03-07T04:31:49.513Z,93844.00
2023-03-07T04:32:49.494Z,93842.00
2023-03-07T04:33:49.540Z,93844.00
2023-03-07T04:34:49.562Z,93842.00
2023-03-07T04:35:49.660Z,93840.00
2023-03-07T04:36:49.653Z,93838.00
2023-03-07T04:37:49.728Z,93842.00
2023-03-07T04:38:49.824Z,93840.00
2023-03-07T04:39:49.872Z,93842.00
2023-03-07T04:40:49.929Z,93842.00
2023-03-07T04:41:49.975Z,93844.00
2023-03-07T04:42:50.053Z,93844.00
2023-03-07T04:43:50.118Z,93844.00
2023-03-07T04:44:50.175Z,93844.00
2023-03-07T04:45:50.227Z,93846.00
2023-03-07T04:46:50.317Z,93844.00
2023-03-07T04:47:50.376Z,93844.00
2023-03-07T04:48:50.430Z,93842.00
2023-03-07T04:49:50.515Z,93844.00
2023-03-07T04:50:50.538Z,93844.00
2023-03-07T04:51:50.631Z,93844.00
2023-03-07T04:52:50.684Z,93842.00
2023-03-07T04:53:50.733Z,93844.00
2023-03-07T04:54:50.795Z,93842.00
2023-03-07T04:55:50.853Z,93844.00
2023-03-07T04:56:50.905Z,93842.00
2023-03-07T04:57:50.928Z,93842.00
2023-03-07T04:58:51.005Z,93848.00
2023-03-07T04:59:51.073Z,93842.00
2023-03-07T05:00:51.097Z,93848.00
2023-03-07T05:01:51.149Z,93848.00
2023-03-07T05:02:51.214Z,93844.00
2023-03-07T05:03:51.239Z,93840.00
2023-03-07T05:04:51.291Z,93840.00
2023-03-07T05:05:51.389Z,93840.00
2023-03-07T05:06:51.394Z,93840.00
2023-03-07T05:07:51.435Z,93836.00
2023-03-07T05:08:51.489Z,93834.00
2023-03-07T05:09:51.554Z,93836.00
2023-03-07T05:10:51.608Z,93836.00
2023-03-07T05:11:53.584Z,93838.00
2023-03-07T05:12:51.696Z,93838.00
2023-03-07T05:13:51.742Z,93840.00
2023-03-07T05:14:51.770Z,93840.00
2023-03-07T05:15:51.841Z,93842.00
2023-03-07T05:16:51.869Z,93842.00
2023-03-07T05:17:51.922Z,93842.00
2023-03-07T05:18:51.979Z,93838.00
2023-03-07T05:19:51.979Z,93840.00
2023-03-07T05:20:52.036Z,93842.00
2023-03-07T05:21:52.104Z,93838.00
2023-03-07T05:22:52.107Z,93838.00
2023-03-07T05:23:52.161Z,93838.00
2023-03-07T05:24:52.224Z,93836.00
2023-03-07T05:25:52.247Z,93834.00
2023-03-07T05:26:52.308Z,93838.00
2023-03-07T05:27:52.307Z,93836.00
2023-03-07T05:28:52.380Z,93834.00
2023-03-07T05:29:52.391Z,93834.00
2023-03-07T05:30:52.465Z,93828.00
2023-03-07T05:31:52.471Z,93828.00
2023-03-07T05:32:52.535Z,93826.00
2023-03-07T05:33:52.537Z,93822.00
2023-03-07T05:34:52.580Z,93820.00
2023-03-07T05:35:52.619Z,93822.00
2023-03-07T05:36:52.652Z,93818.00
2023-03-07T05:37:52.695Z,93820.00
2023-03-07T05:38:52.750Z,93818.00
2023-03-07T05:39:52.760Z,93818.00
2023-03-07T05:40:52.798Z,93814.00
2023-03-07T05:41:52.838Z,93820.00
2023-03-07T05:42:52.905Z,93820.00
2023-03-07T05:43:52.873Z,93822.00
2023-03-07T05:44:52.933Z,93822.00
2023-03-07T05:45:53.085Z,93822.00
2023-03-07T05:46:53.011Z,93822.00
2023-03-07T05:47:53.055Z,93822.00
2023-03-07T05:48:53.071Z,93822.00
2023-03-07T05:49:53.114Z,93824.00
2023-03-07T05:50:53.178Z,93820.00
2023-03-07T05:51:53.190Z,93820.00
2023-03-07T05:52:53.260Z,93820.00
2023-03-07T05:53:53.248Z,93820.00
2023-03-07T05:54:53.268Z,93820.00
2023-03-07T05:55:53.314Z,93824.00
2023-03-07T05:56:53.371Z,93822.00
2023-03-07T05:57:53.369Z,93824.00
2023-03-07T05:58:53.396Z,93826.00
2023-03-07T05:59:53.478Z,93826.00
2023-03-07T06:01:01.068Z,93826.00
2023-03-07T06:05:53.471Z,93830.00
2023-03-07T06:06:53.478Z,93830.00
2023-03-07T06:07:53.500Z,93824.00
2023-03-07T06:08:53.443Z,93828.00
2023-03-07T06:09:53.476Z,93828.00
2023-03-07T06:10:53.454Z,93830.00
2023-03-07T06:11:53.435Z,93830.00
2023-03-07T06:12:53.479Z,93828.00
2023-03-07T06:13:53.428Z,93826.00
2023-03-07T06:14:53.530Z,93826.00
2023-03-07T06:15:53.533Z,93828.00
2023-03-07T06:16:53.402Z,93826.00
2023-03-07T06:17:53.411Z,93828.00
2023-03-07T06:18:53.389Z,93826.00
2023-03-07T06:19:53.365Z,93826.00
2023-03-07T06:20:53.378Z,93826.00
2023-03-07T06:21:53.443Z,93824.00
2023-03-07T06:22:53.448Z,93824.00
2023-03-07T06:23:53.453Z,93828.00
2023-03-07T06:24:53.507Z,93826.00
2023-03-07T06:25:53.510Z,93824.00
2023-03-07T06:26:53.571Z,93824.00
2023-03-07T06:27:53.618Z,93822.00
2023-03-07T06:28:53.576Z,93822.00
2023-03-07T06:29:53.570Z,93820.00
2023-03-07T06:30:53.593Z,93818.00
2023-03-07T06:31:53.606Z,93818.00
2023-03-07T06:32:53.626Z,93816.00
2023-03-07T06:33:54.412Z,93818.00
2023-03-07T06:34:53.791Z,93816.00
2023-03-07T06:35:53.739Z,93816.00
2023-03-07T06:36:54.153Z,93814.00
2023-03-07T06:37:54.081Z,93818.00
2023-03-07T06:38:54.100Z,93818.00
2023-03-07T06:39:53.781Z,93820.00
2023-03-07T06:40:53.844Z,93818.00
2023-03-07T06:41:53.877Z,93816.00
2023-03-07T06:42:54.220Z,93816.00
2023-03-07T06:43:53.969Z,93812.00
2023-03-07T06:44:53.998Z,93812.00
2023-03-07T06:47:13.925Z,93808.00
2023-03-07T06:48:13.958Z,93810.00
2023-03-07T06:49:13.696Z,93806.00
2023-03-07T06:50:13.760Z,93810.00
2023-03-07T06:51:13.724Z,93808.00
2023-03-07T06:52:13.675Z,93804.00
2023-03-07T06:53:14.039Z,93804.00
2023-03-07T06:54:13.656Z,93806.00
2023-03-07T06:55:13.661Z,93804.00
2023-03-07T06:56:13.644Z,93802.00
2023-03-07T06:57:13.648Z,93802.00
2023-03-07T06:58:14.667Z,93801.00
2023-03-07T06:59:13.624Z,93799.00
2023-03-07T07:00:13.620Z,93797.00
2023-03-07T07:01:13.608Z,93795.00
2023-03-07T07:02:13.688Z,93793.00
2023-03-07T07:03:13.751Z,93793.00
2023-03-07T07:04:13.918Z,93797.00
2023-03-07T07:05:13.610Z,93795.00
2023-03-07T07:06:13.598Z,93793.00
2023-03-07T07:07:13.580Z,93793.00
2023-03-07T07:08:13.551Z,93791.00
2023-03-07T07:09:13.938Z,93789.00
2023-03-07T07:10:13.533Z,93793.00
2023-03-07T07:11:13.547Z,93793.00
2023-03-07T07:12:13.553Z,93795.00
2023-03-07T07:13:13.549Z,93795.00
2023-03-07T07:14:13.533Z,93789.00
2023-03-07T07:15:13.494Z,93789.00
2023-03-07T07:16:13.521Z,93793.00
2023-03-07T07:17:13.514Z,93795.00
2023-03-07T07:18:13.541Z,93797.00
2023-03-07T07:19:13.485Z,93795.00
2023-03-07T07:20:13.489Z,93799.00
2023-03-07T07:21:13.514Z,93801.00
2023-03-07T07:22:13.480Z,93797.00
2023-03-07T07:23:13.487Z,93793.00
2023-03-07T07:24:13.454Z,93795.00
2023-03-07T07:25:13.497Z,93797.00
2023-03-07T07:26:13.442Z,93797.00
2023-03-07T07:27:13.453Z,93789.00
2023-03-07T07:28:13.450Z,93795.00
2023-03-07T07:29:13.416Z,93793.00
2023-03-07T07:30:13.435Z,93793.00
2023-03-07T07:31:13.395Z,93795.00
2023-03-07T07:32:14.072Z,93793.00
2023-03-07T07:33:13.556Z,93795.00
2023-03-07T07:34:13.389Z,93787.00
2023-03-07T07:35:13.396Z,93791.00
2023-03-07T07:36:13.362Z,93783.00
2023-03-07T07:37:13.380Z,93787.00
2023-03-07T07:38:13.382Z,93781.00
2023-03-07T07:39:13.352Z,93783.00
2023-03-07T07:40:13.362Z,93787.00
2023-03-07T07:41:13.328Z,93785.00
2023-03-07T07:42:13.335Z,93795.00
2023-03-07T07:43:13.360Z,93793.00
2023-03-07T07:44:13.377Z,93789.00
2023-03-07T07:45:13.464Z,93789.00
2023-03-07T07:46:13.547Z,93787.00
2023-03-07T07:47:13.416Z,93783.00
2023-03-07T07:48:13.464Z,93783.00
2023-03-07T07:49:13.571Z,93781.00
2023-03-07T07:50:13.627Z,93779.00
2023-03-07T07:51:13.698Z,93775.00
2023-03-07T07:52:13.725Z,93775.00
2023-03-07T07:53:13.715Z,93777.00
2023-03-07T07:54:13.737Z,93775.00
2023-03-07T07:55:13.741Z,93773.00
2023-03-07T07:56:13.741Z,93773.00
2023-03-07T07:57:13.788Z,93773.00
2023-03-07T07:58:13.952Z,93781.00
2023-03-07T07:59:13.936Z,93779.00
2023-03-07T08:00:13.938Z,93777.00
2023-03-07T08:01:14.008Z,93773.00
2023-03-07T08:02:14.167Z,93773.00
2023-03-07T08:03:14.181Z,93765.00
2023-03-07T08:04:14.193Z,93765.00
2023-03-07T08:05:14.230Z,93761.00
2023-03-07T08:06:14.304Z,93759.00
2023-03-07T08:07:14.345Z,93759.00
2023-03-07T08:08:14.452Z,93759.00
2023-03-07T08:09:14.988Z,93759.00
2023-03-07T08:10:14.517Z,93761.00
2023-03-07T08:11:14.581Z,93755.00
2023-03-07T08:12:14.655Z,93754.00
2023-03-07T08:13:14.721Z,93754.00
2023-03-07T08:14:14.961Z,93757.00
2023-03-07T08:15:14.839Z,93757.00
2023-03-07T08:16:14.992Z,93757.00
2023-03-07T08:17:14.923Z,93757.00
2023-03-07T08:18:14.994Z,93757.00
2023-03-07T08:19:15.060Z,93757.00
2023-03-07T08:20:15.117Z,93755.00
2023-03-07T08:21:15.197Z,93755.00
2023-03-07T08:22:15.246Z,93754.00
2023-03-07T08:23:15.326Z,93754.00
2023-03-07T08:24:15.301Z,93750.00
2023-03-07T08:25:15.315Z,93748.00
2023-03-07T08:26:15.396Z,93748.00
2023-03-07T08:27:15.424Z,93746.00
2023-03-07T08:28:15.440Z,93748.00
2023-03-07T08:29:15.472Z,93740.00
2023-03-07T08:30:15.504Z,93744.00
2023-03-07T08:31:15.574Z,93742.00
2023-03-07T08:32:15.685Z,93740.00
2023-03-07T08:33:15.635Z,93740.00
2023-03-07T08:34:15.993Z,93742.00
2023-03-07T08:35:15.759Z,93740.00
2023-03-07T08:36:15.893Z,93738.00
2023-03-07T08:37:15.826Z,93736.00
2023-03-07T08:38:15.845Z,93738.00
2023-03-07T08:39:15.854Z,93738.00
2023-03-07T08:40:15.895Z,93736.00
2023-03-07T08:41:16.033Z,93734.00
2023-03-07T08:42:16.108Z,93740.00
2023-03-07T08:43:16.079Z,93736.00
2023-03-07T08:44:16.089Z,93738.00
2023-03-07T08:45:16.073Z,93732.00
2023-03-07T08:46:16.121Z,93728.00
2023-03-07T08:47:16.046Z,93728.00
2023-03-07T08:48:16.147Z,93728.00
2023-03-07T08:49:16.179Z,93728.00
2023-03-07T08:50:16.331Z,93726.00
2023-03-07T08:51:16.493Z,93724.00
2023-03-07T08:52:16.498Z,93724.00
2023-03-07T08:53:16.557Z,93722.00
2023-03-07T08:54:16.975Z,93726.00
2023-03-07T08:55:16.666Z,93724.00
2023-03-07T08:56:16.689Z,93722.00
2023-03-07T08:57:16.641Z,93726.00
2023-03-07T08:58:16.732Z,93720.00
2023-03-07T08:59:16.726Z,93720.00
2023-03-07T09:00:16.744Z,93716.00
2023-03-07T09:01:16.774Z,93714.00
2023-03-07T09:02:16.831Z,93712.00
2023-03-07T09:03:16.899Z,93710.00
2023-03-07T09:04:16.992Z,93708.00
2023-03-07T09:05:17.067Z,93710.00
2023-03-07T09:06:17.125Z,93707.00
2023-03-07T09:07:17.217Z,93708.00
2023-03-07T09:08:17.320Z,93705.00
2023-03-07T09:09:17.532Z,93703.00
2023-03-07T09:10:17.430Z,93703.00
2023-03-07T09:11:17.501Z,93703.00
2023-03-07T09:12:17.501Z,93699.00
2023-03-07T09:13:18.367Z,93703.00
2023-03-07T09:14:18.035Z,93701.00
2023-03-07T09:15:17.960Z,93701.00
2023-03-07T09:16:17.725Z,93699.00
2023-03-07T09:17:17.701Z,93695.00
2023-03-07T09:18:17.790Z,93691.00
2023-03-07T09:19:17.840Z,93689.00
2023-03-07T09:20:17.885Z,93689.00
2023-03-07T09:21:17.905Z,93689.00
2023-03-07T09:22:17.996Z,93685.00
2023-03-07T09:23:18.027Z,93683.00
2023-03-07T09:24:18.118Z,93683.00
2023-03-07T09:25:18.532Z,93681.00
2023-03-07T09:26:18.204Z,93681.00
2023-03-07T09:27:18.250Z,93679.00
2023-03-07T09:28:18.315Z,93673.00
2023-03-07T09:29:18.685Z,93673.00
2023-03-07T09:30:18.489Z,93671.00
2023-03-07T09:31:18.448Z,93667.00
2023-03-07T09:32:18.463Z,93663.00
2023-03-07T09:33:18.459Z,93663.00
2023-03-07T09:34:18.521Z,93665.00
2023-03-07T09:35:18.588Z,93663.00
2023-03-07T09:36:18.606Z,93659.00
2023-03-07T09:37:18.667Z,93656.00
2023-03-07T09:38:18.730Z,93654.00
2023-03-07T09:39:18.754Z,93650.00
2023-03-07T09:40:18.827Z,93648.00
2023-03-07T09:41:18.863Z,93648.00
2023-03-07T09:42:18.879Z,93648.00
2023-03-07T09:43:18.966Z,93644.00
2023-03-07T09:44:18.992Z,93642.00
2023-03-07T09:45:19.508Z,93638.00
2023-03-07T09:46:19.036Z,93636.00
2023-03-07T09:47:19.082Z,93636.00
2023-03-07T09:48:19.085Z,93636.00
2023-03-07T09:49:19.150Z,93630.00
2023-03-07T09:50:19.174Z,93626.00
2023-03-07T09:51:19.203Z,93626.00
2023-03-07T09:52:19.262Z,93624.00
2023-03-07T09:53:19.315Z,93622.00
2023-03-07T09:54:19.341Z,93618.00
2023-03-07T09:55:19.390Z,93610.00
2023-03-07T09:56:19.388Z,93620.00
2023-03-07T09:57:19.405Z,93618.00
2023-03-07T09:58:19.472Z,93618.00
2023-03-07T09:59:23.105Z,93612.00
2023-03-07T10:00:19.493Z,93614.00
2023-03-07T10:01:19.474Z,93610.00
2023-03-07T10:02:19.450Z,93606.00
2023-03-07T10:03:19.471Z,93608.00
2023-03-07T10:04:19.497Z,93608.00
2023-03-07T10:05:19.443Z,93606.00
2023-03-07T10:06:19.445Z,93599.00
2023-03-07T10:07:19.412Z,93608.00
2023-03-07T10:08:19.430Z,93606.00
2023-03-07T10:09:19.509Z,93597.00
2023-03-07T10:10:19.603Z,93597.00
2023-03-07T10:11:19.468Z,93591.00
2023-03-07T10:12:19.388Z,93589.00
2023-03-07T10:13:19.403Z,93587.00
2023-03-07T10:14:19.411Z,93579.00
2023-03-07T10:15:19.378Z,93581.00
2023-03-07T10:16:19.386Z,93579.00
2023-03-07T10:17:20.052Z,93577.00
2023-03-07T10:18:19.375Z,93577.00
2023-03-07T10:19:19.347Z,93569.00
2023-03-07T10:20:19.590Z,93569.00
2023-03-07T10:21:19.351Z,93567.00
2023-03-07T10:22:19.319Z,93569.00
2023-03-07T10:23:20.983Z,93569.00
2023-03-07T10:24:19.316Z,93567.00
2023-03-07T10:25:19.509Z,93567.00
2023-03-07T10:26:19.303Z,93567.00
2023-03-07T10:27:19.316Z,93563.00
2023-03-07T10:28:19.299Z,93560.00
2023-03-07T10:29:19.312Z,93560.00
2023-03-07T10:30:19.589Z,93558.00
2023-03-07T10:31:19.321Z,93552.00
2023-03-07T10:32:19.278Z,93556.00
2023-03-07T10:33:19.297Z,93552.00
2023-03-07T10:34:26.628Z,93550.00
2023-03-07T10:35:20.391Z,93548.00
2023-03-07T10:36:19.246Z,93542.00
2023-03-07T10:37:19.256Z,93540.00
2023-03-07T10:38:19.212Z,93542.00
2023-03-07T10:39:19.195Z,93538.00
2023-03-07T10:40:19.241Z,93532.00
2023-03-07T10:41:19.179Z,93530.00
2023-03-07T10:42:19.191Z,93528.00
2023-03-07T10:43:19.190Z,93526.00
2023-03-07T10:44:19.190Z,93522.00
2023-03-07T10:45:19.506Z,93516.00
2023-03-07T10:46:27.183Z,93514.00
2023-03-07T10:47:20.304Z,93518.00
2023-03-07T10:48:19.307Z,93514.00
2023-03-07T10:49:19.294Z,93513.00
2023-03-07T10:50:19.550Z,93513.00
2023-03-07T10:51:19.268Z,93509.00
2023-03-07T10:52:19.245Z,93507.00
2023-03-07T10:53:19.258Z,93507.00
2023-03-07T10:54:19.272Z,93503.00
2023-03-07T10:55:19.252Z,93501.00
2023-03-07T10:56:19.355Z,93501.00
2023-03-07T10:57:19.376Z,93499.00
2023-03-07T10:58:19.449Z,93497.00
2023-03-07T10:59:19.521Z,93497.00
2023-03-07T11:00:19.540Z,93497.00
2023-03-07T11:01:19.649Z,93493.00
2023-03-07T11:02:19.635Z,93491.00
2023-03-07T11:03:19.734Z,93487.00
2023-03-07T11:04:19.857Z,93485.00
2023-03-07T11:05:19.867Z,93481.00
2023-03-07T11:06:19.883Z,93483.00
2023-03-07T11:07:19.976Z,93479.00
2023-03-07T11:08:20.044Z,93473.00
2023-03-07T11:09:20.042Z,93473.00
2023-03-07T11:10:20.099Z,93471.00
2023-03-07T11:11:21.083Z,93471.00
2023-03-07T11:12:20.199Z,93465.00
2023-03-07T11:13:20.277Z,93465.00
2023-03-07T11:14:20.330Z,93459.00
2023-03-07T11:15:20.389Z,93459.00
2023-03-07T11:16:20.573Z,93454.00
2023-03-07T11:17:20.496Z,93454.00
2023-03-07T11:18:20.549Z,93454.00
2023-03-07T11:19:20.562Z,93450.00
2023-03-07T11:20:20.685Z,93448.00
2023-03-07T11:21:20.767Z,93444.00
2023-03-07T11:22:20.680Z,93440.00
2023-03-07T11:23:20.762Z,93440.00
2023-03-07T11:24:20.724Z,93436.00
2023-03-07T11:25:20.690Z,93428.00
2023-03-07T11:26:20.699Z,93426.00
2023-03-07T11:27:20.679Z,93420.00
2023-03-07T11:28:20.686Z,93418.00
2023-03-07T11:29:20.679Z,93420.00
2023-03-07T11:30:20.743Z,93418.00
2023-03-07T11:31:20.844Z,93416.00
2023-03-07T11:32:20.833Z,93416.00
2023-03-07T11:33:20.944Z,93416.00
2023-03-07T11:34:20.980Z,93414.00
2023-03-07T11:35:20.977Z,93418.00
2023-03-07T11:36:21.557Z,93412.00
2023-03-07T11:37:23.516Z,93411.00
2023-03-07T11:38:21.226Z,93411.00
2023-03-07T11:39:21.300Z,93403.00
2023-03-07T11:40:21.328Z,93401.00
2023-03-07T11:41:21.573Z,93393.00
2023-03-07T11:42:21.443Z,93395.00
2023-03-07T11:43:21.499Z,93391.00
2023-03-07T11:44:21.526Z,93389.00
2023-03-07T11:45:21.618Z,93387.00
2023-03-07T11:46:22.193Z,93385.00
2023-03-07T11:47:21.730Z,93387.00
2023-03-07T11:48:21.768Z,93385.00
2023-03-07T11:49:21.940Z,93385.00
2023-03-07T11:50:21.860Z,93381.00
2023-03-07T11:51:21.899Z,93381.00
2023-03-07T11:52:21.972Z,93385.00
2023-03-07T11:53:21.931Z,93381.00
2023-03-07T11:54:21.992Z,93375.00
2023-03-07T11:55:22.567Z,93379.00
2023-03-07T11:56:21.998Z,93373.00
2023-03-07T11:57:22.044Z,93371.00
2023-03-07T11:58:22.045Z,93367.00
2023-03-07T11:59:22.049Z,93371.00
2023-03-07T12:00:22.083Z,93371.00
2023-03-07T12:01:22.108Z,93369.00
2023-03-07T12:02:22.151Z,93365.00
2023-03-07T12:03:22.126Z,93365.00